Beef Island, British Virgin Islands

2:24 AM AST on August 29, 2015 (GMT -0400)
Beef I International | | Change Station
CLOSE
Current Station
Airport
Location: Beef Island,
Elevation: 13 ft
Nearby Weather Stations

Elev 13 ft 18.44 °N, 64.54 °W | Updated 4 hours ago

Mostly Cloudy
Mostly Cloudy
82 °F
Feels Like 91 °F
N
7
Wind Variable Wind from East

Today
High -- | Low -- °F
--% Chance of Precip.
Yesterday
High -- | Low -- °F
Precip. -- in
6:02 AM 6:35 PM
Full, 100% visible
Pressure 30.04 in
Visibility 6.2 miles
Clouds Few 1900 ft
Scattered Clouds 7500 ft
Mostly Cloudy 22000 ft
Heat Index 91 °F
Dew Point 77 °F
Humidity 84%
Rainfall 0.00 in
Snow Depth Not available.
UV 0 out of 12
Pollen Not available.
Air Quality Not available.
Flu Activity Not available.
METAR TUPJ 290200Z 10006KT 050V150 9999 FEW019 SCT075 BKN220 28/25 Q1017 RMK A3005
Pressure 30.04 in
Visibility 6.2 miles
Clouds Few 1900 ft
Scattered Clouds 7500 ft
Mostly Cloudy 22000 ft
Heat Index 91 °F
Dew Point 77 °F
Humidity 84%
Rainfall 0.00 in
Snow Depth Not available.
UV 0 out of 12
Pollen Not available.
Air Quality Not available.
Flu Activity Not available.
METAR TUPJ 290200Z 10006KT 050V150 9999 FEW019 SCT075 BKN220 28/25 Q1017 RMK A3005

10-Day Weather Forecast

×

Almanac

Astronomy

Aug. 29, 2015 Rise Set
Actual Time
Civil Twilight
Nautical Twilight
Astronomical Twilight
Moon
Length of Visible Light
Length of Day
Tomorrow will be .
, % of the Moon is Illuminated

Today's Extremes

Country Highs Country Lows

Community

WunderPhotos

Upload Photos

1,850,622 photos uploaded!

WunderBlogs® & News

Nearby

Air Quality

  Air Quality AQ Index Pollutant
Not available.

Snow Depth

Station Depth Elevation

Earthquake Activity

City Distance Mag. Time & Date
Minimum magnitude displayed is 2.5.

Coastal Water Temperatures

Place Temperature

Stations

Nearby Weather Stations

Station Location Temp. Windchill Dew Point Humidity Wind Precip. Elev Updated Type